Grasston, Minnesota
Current Conditions -  °F | °C
As of 2:05 PM on Sunday 21 Dec 2014 (Local Time) from KJMR Reporting Station
Overcast Overcast  
Wind Chill: 27°   Ceiling: 600
Heat Index: 32°   Visibility: 7mi
Dew Point: 30°   Wind: 5mph
Humidity: 93%   Direction: 140°SE
Pressure: 29.76"   Gusts: NA
Location:  45.79°N, 93.15°W
Report Text: KJMR 212005Z AUTO 14004KT 7SM OVC006 00/M01 A2976 RMK AO2
Loading
Personal Weather Stations






























Interactive Weather Map New forecast layout! Learn more

10-Day Weather Forecast

Advertisements
Track Severe Weather on mobile